Emerado, North Dakota
Current Conditions -  °F | °C
As of 7:38 AM on Sunday 21 Dec 2014 (Local Time) from KRDR Reporting Station
Overcast Overcast  
Wind Chill: 18°   Ceiling: 300
Heat Index: 28°   Visibility: 8mi
Dew Point: 28°   Wind: 13mph
Humidity: 100%   Direction: 190°S
Pressure: 29.7"   Gusts: NA
Location:  47.92°N, 97.37°W
Report Text: KRDR 211338Z AUTO 19011KT 8SM R17/5500FT OVC003 M02/M02 A2970 RMK AO2
Loading
Personal Weather Stations






























Interactive Weather Map New forecast layout! Learn more

10-Day Weather Forecast

Advertisements
Track Severe Weather on mobile